CCI9 weather

Cortes Island (Hansen Airfield) Airport
Cortes Island, British Columbia, Canada

Public forecast

Using degrees Celsius for public forecast. Weather courtesy of forecast.io.

METAR (pilot weather report)

Closest report is Campbell River Airport, 11.8 nm (21.9 km) WSW. Retrieved 2019/07/17 21:00 UTC (38 minutes ago):

CYBL 172100Z 10009KT 25SM FEW014 SCT030TCU BKN070 20/15 A2974 RMK CF1TCU3AC2 SLP073 DENSITY ALT 1200FT

TAF (pilot weather forecast)

Closest forecast is Campbell River Airport, 11.8 nm (21.9 km) WSW. Retrieved 2019/07/17 19:00 UTC (3 hours ago):

TAF CYBL 171838Z 1719/1804 11007KT P6SM SCT012 BKN030 OVC060 TEMPO 1719/1721 P6SM -SHRA BKN012 OVC030 FM172100 VRB03KT P6SM SCT020 BKN040 TEMPO 1721/1804 P6SM -SHRA PROB30 1722/1802 VRB15G25KT 5SM TSRA BR BKN020 OVC040CB RMK NXT FCST BY 180100Z